Time;durP1;ratioP1;P1;durP2;ratioP2;P2;SDS_P1;SDS_P2;PMS_P1;PMS_P2;Temp;Humidity;BMP_temperature;BMP_pressure;BME280_temperature;BME280_humidity;BME280_pressure;Samples;Min_cycle;Max_cycle;Signal;HPM_P1;HPM_P2
2022/04/03 00:01:10;;;;;;;11.00;6.40;;;;;;;-1.33;60.21;99449.19;107759;1269;138091;-74
2022/04/03 00:03:42;;;;;;;10.90;5.90;;;;;;;-1.34;59.69;99457.71;107904;1269;96540;-74
2022/04/03 00:06:14;;;;;;;15.60;6.20;;;;;;;-1.34;60.31;99455.16;107781;1269;138583;-73
2022/04/03 00:08:46;;;;;;;12.90;6.50;;;;;;;-1.33;59.99;99455.84;107885;1270;108875;-73
2022/04/03 00:11:18;;;;;;;12.00;6.20;;;;;;;-1.32;60.26;99460.27;107799;1270;138953;-73
2022/04/03 00:13:50;;;;;;;11.40;6.40;;;;;;;-1.32;60.30;99463.01;107903;1270;96105;-73
2022/04/03 00:16:22;;;;;;;14.10;6.60;;;;;;;-1.31;60.39;99459.94;107916;1269;95834;-73
2022/04/03 00:18:54;;;;;;;12.00;6.00;;;;;;;-1.32;60.51;99456.18;107789;1269;138803;-72
2022/04/03 00:21:26;;;;;;;11.50;6.40;;;;;;;-1.30;60.38;99456.18;106630;1270;107729;-73
2022/04/03 00:23:58;;;;;;;12.90;6.20;;;;;;;-1.30;60.41;99456.36;106243;1270;138513;-70
2022/04/03 00:26:31;;;;;;;11.30;5.70;;;;;;;-1.29;60.45;99456.70;106350;1270;97807;-73
2022/04/03 00:29:04;;;;;;;14.00;6.00;;;;;;;-1.31;60.20;99458.91;106266;1270;138744;-72
2022/04/03 00:31:36;;;;;;;13.30;6.40;;;;;;;-1.32;60.23;99459.08;106294;1270;111951;-73
2022/04/03 00:34:08;;;;;;;12.50;6.00;;;;;;;-1.33;59.88;99464.02;106363;1270;107906;-73
2022/04/03 00:36:40;;;;;;;15.30;6.50;;;;;;;-1.33;60.18;99456.69;106205;1270;138629;-74
2022/04/03 00:39:12;;;;;;;11.80;6.00;;;;;;;-1.33;60.43;99456.18;106389;1270;97833;-73
2022/04/03 00:41:44;;;;;;;15.40;6.40;;;;;;;-1.37;60.52;99458.73;106371;1270;138283;-73
2022/04/03 00:44:18;;;;;;;9.50;5.80;;;;;;;-1.39;60.07;99462.48;106448;1269;112570;-74
2022/04/03 00:46:50;;;;;;;11.80;6.20;;;;;;;-1.40;60.41;99458.90;106290;1270;138212;-73
2022/04/03 00:49:22;;;;;;;10.00;6.30;;;;;;;-1.41;60.29;99462.64;107887;1269;109212;-73
2022/04/03 00:51:55;;;;;;;9.20;6.20;;;;;;;-1.44;60.07;99460.41;107028;1269;97825;-74
2022/04/03 00:54:27;;;;;;;10.10;5.80;;;;;;;-1.46;60.43;99465.33;106273;1270;137280;-73
2022/04/03 00:56:59;;;;;;;15.10;6.10;;;;;;;-1.49;60.41;99466.69;106394;1270;112378;-74
2022/04/03 00:59:31;;;;;;;12.50;6.30;;;;;;;-1.51;60.30;99466.85;106188;1270;139170;-73
2022/04/03 01:02:04;;;;;;;13.40;6.30;;;;;;;-1.53;60.29;99464.98;106236;1270;109071;-72
2022/04/03 01:04:39;;;;;;;10.10;6.30;;;;;;;-1.58;60.42;99468.21;106352;1270;97828;-74
2022/04/03 01:07:11;;;;;;;11.10;6.40;;;;;;;-1.62;60.43;99465.61;107779;1270;138732;-74
2022/04/03 01:09:44;;;;;;;11.80;6.10;;;;;;;-1.64;60.51;99466.29;107925;1270;112474;-75
2022/04/03 01:12:16;;;;;;;10.20;5.80;;;;;;;-1.67;60.79;99466.11;107794;1269;139374;-74
2022/04/03 01:15:10;;;;;;;10.80;6.20;;;;;;;-1.66;60.72;99467.30;107873;1269;107906;-73
2022/04/03 01:17:42;;;;;;;11.20;5.90;;;;;;;-1.66;60.47;99466.80;107724;1270;138955;-72
2022/04/03 01:20:15;;;;;;;11.60;6.50;;;;;;;-1.66;60.78;99465.09;107868;1270;96196;-74
2022/04/03 01:22:47;;;;;;;13.40;6.60;;;;;;;-1.67;60.97;99466.96;107774;1269;138695;-72
2022/04/03 01:25:19;;;;;;;12.20;5.90;;;;;;;-1.67;60.67;99466.27;107899;1270;108596;-73
2022/04/03 01:27:51;;;;;;;12.90;5.90;;;;;;;-1.66;60.84;99467.13;107258;1270;110250;-73
2022/04/03 01:30:23;;;;;;;12.60;5.90;;;;;;;-1.64;61.06;99469.69;106162;1270;138336;-73
2022/04/03 01:32:56;;;;;;;10.80;6.30;;;;;;;-1.64;60.68;99464.07;106312;1270;97814;-72
2022/04/03 01:35:28;;;;;;;13.60;6.90;;;;;;;-1.63;60.63;99464.92;106259;1270;138355;-72
2022/04/03 01:38:00;;;;;;;11.40;6.30;;;;;;;-1.65;60.49;99466.80;107882;1270;108038;-72
2022/04/03 01:40:35;;;;;;;10.50;6.30;;;;;;;-1.67;60.58;99469.69;106890;1270;108848;-73
2022/04/03 01:43:09;;;;;;;16.10;6.50;;;;;;;-1.68;60.43;99472.75;106143;1270;138175;-72
2022/04/03 01:45:41;;;;;;;10.30;5.90;;;;;;;-1.71;60.64;99477.68;107006;1270;97912;-73
2022/04/03 01:48:13;;;;;;;10.10;6.00;;;;;;;-1.74;60.27;99477.34;106266;1270;138195;-73
2022/04/03 01:50:47;;;;;;;11.40;6.10;;;;;;;-1.77;60.33;99476.30;106358;1270;109046;-72
2022/04/03 01:53:20;;;;;;;14.30;6.60;;;;;;;-1.80;60.53;99476.09;107763;1270;139107;-73
2022/04/03 01:56:03;;;;;;;12.60;6.20;;;;;;;-1.82;60.80;99482.56;107925;1270;96170;-72
2022/04/03 01:58:36;;;;;;;10.70;6.30;;;;;;;-1.83;60.61;99489.20;107938;1269;95891;-73
